sensor_id;sensor_type;location;lat;lon;timestamp;pressure;altitude;pressure_sealevel;temperature;humidity
78444;BME280;67739;52.986;8.894;2023-10-08T00:01:23;102203.19;;;14.11;78.69
78444;BME280;67739;52.986;8.894;2023-10-08T00:03:49;102213.19;;;14.09;79.08
78444;BME280;67739;52.986;8.894;2023-10-08T00:06:16;102242.91;;;14.07;78.89
78444;BME280;67739;52.986;8.894;2023-10-08T00:08:44;102251.06;;;14.06;78.79
78444;BME280;67739;52.986;8.894;2023-10-08T00:11:10;102254.72;;;14.05;78.80
78444;BME280;67739;52.986;8.894;2023-10-08T00:13:35;102270.94;;;14.03;78.96
78444;BME280;67739;52.986;8.894;2023-10-08T00:16:06;102265.63;;;14.02;79.07
78444;BME280;67739;52.986;8.894;2023-10-08T00:18:35;102271.06;;;14.00;79.00
78444;BME280;67739;52.986;8.894;2023-10-08T00:21:01;102270.28;;;13.98;79.31
78444;BME280;67739;52.986;8.894;2023-10-08T00:23:36;102272.16;;;13.96;79.38
78444;BME280;67739;52.986;8.894;2023-10-08T00:26:09;102274.91;;;13.95;79.15
78444;BME280;67739;52.986;8.894;2023-10-08T00:28:35;102275.84;;;13.94;79.23
78444;BME280;67739;52.986;8.894;2023-10-08T00:31:03;102280.34;;;13.93;79.09
78444;BME280;67739;52.986;8.894;2023-10-08T00:33:31;102272.38;;;13.90;78.97
78444;BME280;67739;52.986;8.894;2023-10-08T00:35:57;102281.41;;;13.89;79.35
78444;BME280;67739;52.986;8.894;2023-10-08T00:38:22;102289.56;;;13.88;78.95
78444;BME280;67739;52.986;8.894;2023-10-08T00:40:50;102300.41;;;13.86;79.12
78444;BME280;67739;52.986;8.894;2023-10-08T00:43:34;102300.47;;;13.85;79.41
78444;BME280;67739;52.986;8.894;2023-10-08T00:46:04;102301.41;;;13.84;79.40
78444;BME280;67739;52.986;8.894;2023-10-08T00:48:31;102289.81;;;13.82;79.27
78444;BME280;67739;52.986;8.894;2023-10-08T00:51:04;102297.06;;;13.79;79.34
78444;BME280;67739;52.986;8.894;2023-10-08T00:53:57;102298.06;;;13.77;79.21
78444;BME280;67739;52.986;8.894;2023-10-08T00:56:36;102300.75;;;13.77;78.92
78444;BME280;67739;52.986;8.894;2023-10-08T00:59:20;102303.50;;;13.75;79.18
78444;BME280;67739;52.986;8.894;2023-10-08T01:01:48;102320.63;;;13.74;79.34
78444;BME280;67739;52.986;8.894;2023-10-08T01:04:21;102327.00;;;13.72;79.52
78444;BME280;67739;52.986;8.894;2023-10-08T01:06:57;102325.25;;;13.71;79.41
78444;BME280;67739;52.986;8.894;2023-10-08T01:09:29;102318.13;;;13.70;79.51
78444;BME280;67739;52.986;8.894;2023-10-08T01:12:26;102325.38;;;13.68;79.36
78444;BME280;67739;52.986;8.894;2023-10-08T01:14:59;102321.81;;;13.67;79.50
78444;BME280;67739;52.986;8.894;2023-10-08T01:17:38;102328.13;;;13.66;79.14
78444;BME280;67739;52.986;8.894;2023-10-08T01:20:14;102338.09;;;13.64;79.55
78444;BME280;67739;52.986;8.894;2023-10-08T01:23:10;102329.13;;;13.64;79.71
78444;BME280;67739;52.986;8.894;2023-10-08T01:25:43;102318.38;;;13.62;79.48
78444;BME280;67739;52.986;8.894;2023-10-08T01:28:09;102317.50;;;13.62;79.46
78444;BME280;67739;52.986;8.894;2023-10-08T01:30:43;102313.09;;;13.59;79.56
78444;BME280;67739;52.986;8.894;2023-10-08T01:33:15;102298.72;;;13.59;79.78
78444;BME280;67739;52.986;8.894;2023-10-08T01:35:43;102306.00;;;13.57;79.58
78444;BME280;67739;52.986;8.894;2023-10-08T01:38:08;102317.75;;;13.56;79.76
78444;BME280;67739;52.986;8.894;2023-10-08T01:40:39;102326.75;;;13.55;79.82
78444;BME280;67739;52.986;8.894;2023-10-08T01:43:04;102322.31;;;13.54;79.59
78444;BME280;67739;52.986;8.894;2023-10-08T01:45:30;102321.41;;;13.53;79.55
78444;BME280;67739;52.986;8.894;2023-10-08T01:47:57;102314.28;;;13.52;79.75
78444;BME280;67739;52.986;8.894;2023-10-08T01:50:23;102311.63;;;13.51;79.68
78444;BME280;67739;52.986;8.894;2023-10-08T01:52:53;102318.84;;;13.50;79.85
78444;BME280;67739;52.986;8.894;2023-10-08T01:55:18;102319.75;;;13.49;79.81
78444;BME280;67739;52.986;8.894;2023-10-08T01:57:49;102315.34;;;13.47;79.81
78444;BME280;67739;52.986;8.894;2023-10-08T02:00:17;102327.03;;;13.47;79.87
78444;BME280;67739;52.986;8.894;2023-10-08T02:02:50;102325.31;;;13.44;79.71
78444;BME280;67739;52.986;8.894;2023-10-08T02:05:18;102322.63;;;13.44;79.97
78444;BME280;67739;52.986;8.894;2023-10-08T02:07:47;102316.38;;;13.42;79.79
78444;BME280;67739;52.986;8.894;2023-10-08T02:10:13;102316.38;;;13.42;79.67
78444;BME280;67739;52.986;8.894;2023-10-08T02:12:41;102299.41;;;13.40;79.91
78444;BME280;67739;52.986;8.894;2023-10-08T02:15:08;102295.84;;;13.40;79.82
78444;BME280;67739;52.986;8.894;2023-10-08T02:17:34;102301.28;;;13.38;80.01
78444;BME280;67739;52.986;8.894;2023-10-08T02:20:00;102306.69;;;13.38;80.02
78444;BME280;67739;52.986;8.894;2023-10-08T02:22:25;102306.72;;;13.37;79.78
78444;BME280;67739;52.986;8.894;2023-10-08T02:24:51;102308.53;;;13.36;79.85
78444;BME280;67739;52.986;8.894;2023-10-08T02:27:18;102316.69;;;13.35;79.80
78444;BME280;67739;52.986;8.894;2023-10-08T02:29:43;102322.13;;;13.33;79.75
78444;BME280;67739;52.986;8.894;2023-10-08T02:32:09;102327.56;;;13.32;80.02
78444;BME280;67739;52.986;8.894;2023-10-08T02:34:34;102341.97;;;13.31;79.77
78444;BME280;67739;52.986;8.894;2023-10-08T02:37:00;102342.84;;;13.31;79.96
78444;BME280;67739;52.986;8.894;2023-10-08T02:39:28;102334.81;;;13.30;80.06
78444;BME280;67739;52.986;8.894;2023-10-08T02:41:55;102331.28;;;13.28;79.93
78444;BME280;67739;52.986;8.894;2023-10-08T02:44:26;102323.19;;;13.28;80.00
78444;BME280;67739;52.986;8.894;2023-10-08T02:46:52;102322.31;;;13.27;79.89
78444;BME280;67739;52.986;8.894;2023-10-08T02:49:21;102330.50;;;13.26;80.21
78444;BME280;67739;52.986;8.894;2023-10-08T02:51:50;102336.81;;;13.25;80.13
78444;BME280;67739;52.986;8.894;2023-10-08T02:54:17;102357.50;;;13.24;80.18
78444;BME280;67739;52.986;8.894;2023-10-08T02:56:56;102368.31;;;13.23;80.05
78444;BME280;67739;52.986;8.894;2023-10-08T02:59:23;102377.34;;;13.22;79.99
78444;BME280;67739;52.986;8.894;2023-10-08T03:01:53;102385.41;;;13.22;80.05
78444;BME280;67739;52.986;8.894;2023-10-08T03:04:21;102389.97;;;13.20;79.97
78444;BME280;67739;52.986;8.894;2023-10-08T03:06:49;102374.69;;;13.20;80.36
78444;BME280;67739;52.986;8.894;2023-10-08T03:09:23;102382.81;;;13.19;80.23
78444;BME280;67739;52.986;8.894;2023-10-08T03:11:51;102382.00;;;13.17;79.74
78444;BME280;67739;52.986;8.894;2023-10-08T03:14:18;102379.34;;;13.15;80.27
78444;BME280;67739;52.986;8.894;2023-10-08T03:16:48;102389.25;;;13.15;80.29
78444;BME280;67739;52.986;8.894;2023-10-08T03:19:13;102393.72;;;13.14;80.59
78444;BME280;67739;52.986;8.894;2023-10-08T03:21:39;102400.91;;;13.14;80.24
78444;BME280;67739;52.986;8.894;2023-10-08T03:24:04;102385.72;;;13.13;80.29
78444;BME280;67739;52.986;8.894;2023-10-08T03:26:38;102380.38;;;13.11;80.36
78444;BME280;67739;52.986;8.894;2023-10-08T03:29:05;102384.81;;;13.12;80.27
78444;BME280;67739;52.986;8.894;2023-10-08T03:31:33;102386.69;;;13.10;80.39
78444;BME280;67739;52.986;8.894;2023-10-08T03:34:10;102376.84;;;13.09;80.10
78444;BME280;67739;52.986;8.894;2023-10-08T03:36:40;102388.53;;;13.08;80.27
78444;BME280;67739;52.986;8.894;2023-10-08T03:39:15;102409.22;;;13.07;80.27
78444;BME280;67739;52.986;8.894;2023-10-08T03:41:43;102421.84;;;13.05;80.44
78444;BME280;67739;52.986;8.894;2023-10-08T03:44:23;102430.88;;;13.04;80.59
78444;BME280;67739;52.986;8.894;2023-10-08T03:46:49;102422.84;;;13.03;80.51
78444;BME280;67739;52.986;8.894;2023-10-08T03:49:17;102434.53;;;13.02;80.50
78444;BME280;67739;52.986;8.894;2023-10-08T03:51:46;102435.41;;;13.02;80.69
78444;BME280;67739;52.986;8.894;2023-10-08T03:54:11;102439.94;;;13.02;80.54
78444;BME280;67739;52.986;8.894;2023-10-08T03:56:37;102448.06;;;13.00;80.58
78444;BME280;67739;52.986;8.894;2023-10-08T03:59:03;102450.75;;;13.00;80.45
78444;BME280;67739;52.986;8.894;2023-10-08T04:01:49;102446.28;;;12.99;80.31
78444;BME280;67739;52.986;8.894;2023-10-08T04:04:20;102433.78;;;12.98;80.46
78444;BME280;67739;52.986;8.894;2023-10-08T04:06:47;102429.31;;;12.97;80.64
78444;BME280;67739;52.986;8.894;2023-10-08T04:09:17;102423.09;;;12.95;80.59
78444;BME280;67739;52.986;8.894;2023-10-08T04:11:50;102406.94;;;12.95;80.53
78444;BME280;67739;52.986;8.894;2023-10-08T04:14:23;102424.03;;;12.94;80.59
78444;BME280;67739;52.986;8.894;2023-10-08T04:16:48;102433.91;;;12.94;80.51
78444;BME280;67739;52.986;8.894;2023-10-08T04:19:18;102451.88;;;12.93;80.45
78444;BME280;67739;52.986;8.894;2023-10-08T04:21:43;102447.44;;;12.92;80.63
78444;BME280;67739;52.986;8.894;2023-10-08T04:24:09;102451.06;;;12.91;81.07
78444;BME280;67739;52.986;8.894;2023-10-08T04:26:35;102449.28;;;12.90;80.73
78444;BME280;67739;52.986;8.894;2023-10-08T04:29:01;102444.81;;;12.89;80.80
78444;BME280;67739;52.986;8.894;2023-10-08T04:31:32;102456.53;;;12.88;80.75
78444;BME280;67739;52.986;8.894;2023-10-08T04:34:05;102454.75;;;12.87;80.84
78444;BME280;67739;52.986;8.894;2023-10-08T04:36:48;102456.56;;;12.87;80.55
78444;BME280;67739;52.986;8.894;2023-10-08T04:39:20;102444.03;;;12.86;80.88
78444;BME280;67739;52.986;8.894;2023-10-08T04:41:52;102460.22;;;12.84;80.54
78444;BME280;67739;52.986;8.894;2023-10-08T04:44:19;102462.06;;;12.84;80.65
78444;BME280;67739;52.986;8.894;2023-10-08T04:46:47;102464.78;;;12.84;80.92
78444;BME280;67739;52.986;8.894;2023-10-08T04:49:15;102462.13;;;12.82;80.87
78444;BME280;67739;52.986;8.894;2023-10-08T04:52:01;102476.47;;;12.83;80.96
78444;BME280;67739;52.986;8.894;2023-10-08T04:54:30;102476.53;;;12.81;80.83
78444;BME280;67739;52.986;8.894;2023-10-08T04:57:00;102476.53;;;12.81;80.45
78444;BME280;67739;52.986;8.894;2023-10-08T04:59:27;102472.06;;;12.80;80.76
78444;BME280;67739;52.986;8.894;2023-10-08T05:02:01;102483.75;;;12.79;80.86
78444;BME280;67739;52.986;8.894;2023-10-08T05:04:52;102499.03;;;12.79;80.54
78444;BME280;67739;52.986;8.894;2023-10-08T05:07:20;102491.00;;;12.77;80.96
78444;BME280;67739;52.986;8.894;2023-10-08T05:09:49;102497.31;;;12.76;80.77
78444;BME280;67739;52.986;8.894;2023-10-08T05:12:37;102487.47;;;12.75;80.86
78444;BME280;67739;52.986;8.894;2023-10-08T05:15:06;102493.78;;;12.74;81.18
78444;BME280;67739;52.986;8.894;2023-10-08T05:17:38;102496.47;;;12.74;80.93
78444;BME280;67739;52.986;8.894;2023-10-08T05:20:29;102518.91;;;12.74;80.78
78444;BME280;67739;52.986;8.894;2023-10-08T05:23:13;102503.66;;;12.73;80.86
78444;BME280;67739;52.986;8.894;2023-10-08T05:25:56;102509.97;;;12.72;80.87
78444;BME280;67739;52.986;8.894;2023-10-08T05:28:27;102497.44;;;12.71;80.99
78444;BME280;67739;52.986;8.894;2023-10-08T05:30:54;102493.84;;;12.71;81.03
78444;BME280;67739;52.986;8.894;2023-10-08T05:33:30;102507.31;;;12.71;81.20
78444;BME280;67739;52.986;8.894;2023-10-08T05:36:15;102490.28;;;12.70;81.29
78444;BME280;67739;52.986;8.894;2023-10-08T05:38:53;102489.34;;;12.71;81.25
78444;BME280;67739;52.986;8.894;2023-10-08T05:41:44;102497.47;;;12.70;81.17
78444;BME280;67739;52.986;8.894;2023-10-08T05:44:28;102493.06;;;12.69;81.27
78444;BME280;67739;52.986;8.894;2023-10-08T05:47:04;102503.81;;;12.69;81.12
78444;BME280;67739;52.986;8.894;2023-10-08T05:49:51;102502.94;;;12.68;80.92
78444;BME280;67739;52.986;8.894;2023-10-08T05:52:43;102502.97;;;12.67;81.24
78444;BME280;67739;52.986;8.894;2023-10-08T05:55:24;102507.47;;;12.66;81.45
78444;BME280;67739;52.986;8.894;2023-10-08T05:58:03;102519.19;;;12.65;81.20
78444;BME280;67739;52.986;8.894;2023-10-08T06:01:00;102523.69;;;12.65;81.16
78444;BME280;67739;52.986;8.894;2023-10-08T06:03:54;102516.47;;;12.65;81.33
78444;BME280;67739;52.986;8.894;2023-10-08T06:06:36;102518.28;;;12.65;81.37
78444;BME280;67739;52.986;8.894;2023-10-08T06:09:03;102535.38;;;12.64;81.07
78444;BME280;67739;52.986;8.894;2023-10-08T06:11:35;102548.84;;;12.64;81.48
78444;BME280;67739;52.986;8.894;2023-10-08T06:14:11;102547.94;;;12.63;81.13
78444;BME280;67739;52.986;8.894;2023-10-08T06:16:42;102553.34;;;12.63;81.49
78444;BME280;67739;52.986;8.894;2023-10-08T06:19:10;102551.53;;;12.64;81.66
78444;BME280;67739;52.986;8.894;2023-10-08T06:21:37;102560.53;;;12.63;81.35
78444;BME280;67739;52.986;8.894;2023-10-08T06:24:04;102555.16;;;12.63;81.54
78444;BME280;67739;52.986;8.894;2023-10-08T06:26:40;102560.53;;;12.63;81.29
78444;BME280;67739;52.986;8.894;2023-10-08T06:29:11;102556.91;;;12.64;81.30
78444;BME280;67739;52.986;8.894;2023-10-08T06:31:56;102548.84;;;12.64;81.18
78444;BME280;67739;52.986;8.894;2023-10-08T06:34:22;102547.03;;;12.64;81.31
78444;BME280;67739;52.986;8.894;2023-10-08T06:36:52;102547.91;;;12.65;81.42
78444;BME280;67739;52.986;8.894;2023-10-08T06:39:23;102567.66;;;12.65;81.55
78444;BME280;67739;52.986;8.894;2023-10-08T06:41:58;102561.38;;;12.65;81.60
78444;BME280;67739;52.986;8.894;2023-10-08T06:44:24;102563.13;;;12.66;81.35
78444;BME280;67739;52.986;8.894;2023-10-08T06:46:51;102559.56;;;12.65;81.42
78444;BME280;67739;52.986;8.894;2023-10-08T06:49:20;102554.13;;;12.67;81.53
78444;BME280;67739;52.986;8.894;2023-10-08T06:51:49;102562.22;;;12.67;81.51
78444;BME280;67739;52.986;8.894;2023-10-08T06:54:15;102562.22;;;12.67;81.42
78444;BME280;67739;52.986;8.894;2023-10-08T06:56:42;102575.69;;;12.67;81.51
78444;BME280;67739;52.986;8.894;2023-10-08T06:59:17;102581.03;;;12.68;81.53
78444;BME280;67739;52.986;8.894;2023-10-08T07:01:43;102593.56;;;12.69;81.57
78444;BME280;67739;52.986;8.894;2023-10-08T07:04:11;102596.19;;;12.71;81.53
78444;BME280;67739;52.986;8.894;2023-10-08T07:06:38;102598.88;;;12.71;81.54
78444;BME280;67739;52.986;8.894;2023-10-08T07:09:05;102608.75;;;12.70;81.20
78444;BME280;67739;52.986;8.894;2023-10-08T07:11:33;102608.72;;;12.72;81.38
78444;BME280;67739;52.986;8.894;2023-10-08T07:14:05;102617.69;;;12.72;81.44
78444;BME280;67739;52.986;8.894;2023-10-08T07:16:31;102604.22;;;12.72;81.41
78444;BME280;67739;52.986;8.894;2023-10-08T07:18:57;102610.50;;;12.73;81.61
78444;BME280;67739;52.986;8.894;2023-10-08T07:21:43;102612.25;;;12.74;81.35
78444;BME280;67739;52.986;8.894;2023-10-08T07:24:14;102608.66;;;12.75;81.63
78444;BME280;67739;52.986;8.894;2023-10-08T07:26:47;102613.09;;;12.76;81.50
78444;BME280;67739;52.986;8.894;2023-10-08T07:29:16;102614.88;;;12.77;81.44
78444;BME280;67739;52.986;8.894;2023-10-08T07:31:43;102614.88;;;12.77;81.56
78444;BME280;67739;52.986;8.894;2023-10-08T07:34:14;102611.25;;;12.78;81.44
78444;BME280;67739;52.986;8.894;2023-10-08T07:36:57;102618.41;;;12.79;81.48
78444;BME280;67739;52.986;8.894;2023-10-08T07:39:23;102602.22;;;12.81;81.62
78444;BME280;67739;52.986;8.894;2023-10-08T07:41:54;102630.03;;;12.81;81.47
78444;BME280;67739;52.986;8.894;2023-10-08T07:44:21;102640.81;;;12.81;81.58
78444;BME280;67739;52.986;8.894;2023-10-08T07:46:51;102649.72;;;12.83;81.53
78444;BME280;67739;52.986;8.894;2023-10-08T07:49:20;102635.38;;;12.83;81.66
78444;BME280;67739;52.986;8.894;2023-10-08T07:51:45;102639.78;;;12.85;81.85
78444;BME280;67739;52.986;8.894;2023-10-08T07:54:20;102631.69;;;12.85;81.49
78444;BME280;67739;52.986;8.894;2023-10-08T07:56:48;102635.28;;;12.86;81.49
78444;BME280;67739;52.986;8.894;2023-10-08T07:59:14;102651.34;;;12.89;81.68
78444;BME280;67739;52.986;8.894;2023-10-08T08:01:42;102651.31;;;12.90;81.62
78444;BME280;67739;52.986;8.894;2023-10-08T08:04:10;102654.84;;;12.92;81.73
78444;BME280;67739;52.986;8.894;2023-10-08T08:06:37;102666.47;;;12.94;81.58
78444;BME280;67739;52.986;8.894;2023-10-08T08:09:03;102661.94;;;12.96;81.45
78444;BME280;67739;52.986;8.894;2023-10-08T08:11:43;102666.38;;;12.97;81.54
78444;BME280;67739;52.986;8.894;2023-10-08T08:14:11;102671.66;;;13.00;81.79
78444;BME280;67739;52.986;8.894;2023-10-08T08:16:36;102666.25;;;13.02;81.96
78444;BME280;67739;52.986;8.894;2023-10-08T08:19:03;102670.69;;;13.03;81.67
78444;BME280;67739;52.986;8.894;2023-10-08T08:21:28;102675.13;;;13.05;81.65
78444;BME280;67739;52.986;8.894;2023-10-08T08:23:56;102691.25;;;13.07;81.47
78444;BME280;67739;52.986;8.894;2023-10-08T08:26:30;102690.28;;;13.09;81.55
78444;BME280;67739;52.986;8.894;2023-10-08T08:29:05;102694.72;;;13.12;81.52
78444;BME280;67739;52.986;8.894;2023-10-08T08:31:34;102698.22;;;13.14;81.42
78444;BME280;67739;52.986;8.894;2023-10-08T08:34:03;102696.38;;;13.18;81.44
78444;BME280;67739;52.986;8.894;2023-10-08T08:36:33;102699.91;;;13.20;81.25
78444;BME280;67739;52.986;8.894;2023-10-08T08:38:59;102705.25;;;13.21;81.28
78444;BME280;67739;52.986;8.894;2023-10-08T08:41:24;102701.59;;;13.24;81.36
78444;BME280;67739;52.986;8.894;2023-10-08T08:43:54;102705.13;;;13.26;81.22
78444;BME280;67739;52.986;8.894;2023-10-08T08:46:37;102711.28;;;13.29;81.20
78444;BME280;67739;52.986;8.894;2023-10-08T08:49:06;102713.94;;;13.31;81.05
78444;BME280;67739;52.986;8.894;2023-10-08T08:51:37;102708.47;;;13.34;81.02
78444;BME280;67739;52.986;8.894;2023-10-08T08:54:04;102718.31;;;13.35;80.74
78444;BME280;67739;52.986;8.894;2023-10-08T08:56:33;102715.56;;;13.38;81.00
78444;BME280;67739;52.986;8.894;2023-10-08T08:58:59;102733.47;;;13.40;80.88
78444;BME280;67739;52.986;8.894;2023-10-08T09:01:26;102732.53;;;13.41;80.54
78444;BME280;67739;52.986;8.894;2023-10-08T09:03:58;102736.03;;;13.43;80.87
78444;BME280;67739;52.986;8.894;2023-10-08T09:06:26;102732.38;;;13.46;80.66
78444;BME280;67739;52.986;8.894;2023-10-08T09:08:52;102738.59;;;13.48;80.47
78444;BME280;67739;52.986;8.894;2023-10-08T09:11:20;102724.19;;;13.49;80.26
78444;BME280;67739;52.986;8.894;2023-10-08T09:13:46;102726.84;;;13.51;80.25
78444;BME280;67739;52.986;8.894;2023-10-08T09:16:14;102716.03;;;13.52;80.19
78444;BME280;67739;52.986;8.894;2023-10-08T09:18:50;102712.34;;;13.55;80.32
78444;BME280;67739;52.986;8.894;2023-10-08T09:21:18;102714.06;;;13.57;80.26
78444;BME280;67739;52.986;8.894;2023-10-08T09:23:48;102714.00;;;13.59;80.03
78444;BME280;67739;52.986;8.894;2023-10-08T09:26:17;102715.78;;;13.60;80.12
78444;BME280;67739;52.986;8.894;2023-10-08T09:28:47;102715.75;;;13.61;79.84
78444;BME280;67739;52.986;8.894;2023-10-08T09:31:14;102714.81;;;13.62;79.70
78444;BME280;67739;52.986;8.894;2023-10-08T09:33:39;102709.38;;;13.64;79.45
78444;BME280;67739;52.986;8.894;2023-10-08T09:36:06;102717.47;;;13.64;79.46
78444;BME280;67739;52.986;8.894;2023-10-08T09:38:36;102730.03;;;13.65;79.47
78444;BME280;67739;52.986;8.894;2023-10-08T09:41:02;102735.38;;;13.66;79.15
78444;BME280;67739;52.986;8.894;2023-10-08T09:43:29;102736.25;;;13.67;79.24
78444;BME280;67739;52.986;8.894;2023-10-08T09:46:16;102736.22;;;13.68;79.27
78444;BME280;67739;52.986;8.894;2023-10-08T09:48:50;102729.00;;;13.69;78.91
78444;BME280;67739;52.986;8.894;2023-10-08T09:51:18;102737.06;;;13.70;78.78
78444;BME280;67739;52.986;8.894;2023-10-08T09:54:06;102752.28;;;13.71;78.65
78444;BME280;67739;52.986;8.894;2023-10-08T09:56:36;102771.16;;;13.71;78.78
78444;BME280;67739;52.986;8.894;2023-10-08T09:59:02;102769.34;;;13.72;78.53
78444;BME280;67739;52.986;8.894;2023-10-08T10:01:28;102759.44;;;13.72;78.74
78444;BME280;67739;52.986;8.894;2023-10-08T10:03:56;102736.94;;;13.73;78.35
78444;BME280;67739;52.986;8.894;2023-10-08T10:06:24;102729.69;;;13.75;78.51
78444;BME280;67739;52.986;8.894;2023-10-08T10:08:50;102735.09;;;13.75;78.51
78444;BME280;67739;52.986;8.894;2023-10-08T10:11:15;102741.31;;;13.77;78.32
78444;BME280;67739;52.986;8.894;2023-10-08T10:13:43;102735.00;;;13.78;78.31
78444;BME280;67739;52.986;8.894;2023-10-08T10:16:17;102747.56;;;13.79;78.34
78444;BME280;67739;52.986;8.894;2023-10-08T10:18:44;102758.31;;;13.81;78.10
78444;BME280;67739;52.986;8.894;2023-10-08T10:23:48;102748.22;;;13.86;78.02
78444;BME280;67739;52.986;8.894;2023-10-08T10:26:35;102742.75;;;13.89;77.74
78444;BME280;67739;52.986;8.894;2023-10-08T10:31:41;102723.69;;;13.95;77.88
78444;BME280;67739;52.986;8.894;2023-10-08T10:34:12;102729.03;;;13.97;77.86
78444;BME280;67739;52.986;8.894;2023-10-08T10:36:42;102736.16;;;13.99;77.38
78444;BME280;67739;52.986;8.894;2023-10-08T10:39:09;102711.75;;;14.02;77.57
78444;BME280;67739;52.986;8.894;2023-10-08T10:41:52;102711.59;;;14.07;77.75
78444;BME280;67739;52.986;8.894;2023-10-08T10:44:27;102724.03;;;14.12;77.64
78444;BME280;67739;52.986;8.894;2023-10-08T10:46:55;102745.47;;;14.17;77.45
78444;BME280;67739;52.986;8.894;2023-10-08T10:49:39;102778.59;;;14.22;77.67
78444;BME280;67739;52.986;8.894;2023-10-08T10:52:20;102779.34;;;14.27;77.33
78444;BME280;67739;52.986;8.894;2023-10-08T10:55:13;102780.94;;;14.33;77.36
78444;BME280;67739;52.986;8.894;2023-10-08T10:57:39;102787.97;;;14.38;77.16
78444;BME280;67739;52.986;8.894;2023-10-08T11:00:07;102772.53;;;14.43;77.17
78444;BME280;67739;52.986;8.894;2023-10-08T11:02:56;102734.53;;;14.49;77.02
78444;BME280;67739;52.986;8.894;2023-10-08T11:05:26;102698.28;;;14.57;76.80
78444;BME280;67739;52.986;8.894;2023-10-08T11:07:57;102711.56;;;14.63;76.92
78444;BME280;67739;52.986;8.894;2023-10-08T11:10:31;102744.66;;;14.69;76.75
78444;BME280;67739;52.986;8.894;2023-10-08T11:12:57;102740.81;;;14.76;76.83
78444;BME280;67739;52.986;8.894;2023-10-08T11:15:29;102762.16;;;14.84;76.64
78444;BME280;67739;52.986;8.894;2023-10-08T11:18:09;102768.19;;;14.92;76.51
78444;BME280;67739;52.986;8.894;2023-10-08T11:20:34;102766.09;;;15.00;76.25
78444;BME280;67739;52.986;8.894;2023-10-08T11:23:06;102766.69;;;15.08;75.76
78444;BME280;67739;52.986;8.894;2023-10-08T11:25:56;102758.25;;;15.17;75.71
78444;BME280;67739;52.986;8.894;2023-10-08T11:28:29;102754.34;;;15.26;75.53
78444;BME280;67739;52.986;8.894;2023-10-08T11:30:55;102758.56;;;15.33;75.40
78444;BME280;67739;52.986;8.894;2023-10-08T11:33:24;102748.38;;;15.41;75.03
78444;BME280;67739;52.986;8.894;2023-10-08T11:38:24;102739.72;;;15.57;74.67
78444;BME280;67739;52.986;8.894;2023-10-08T11:40:49;102737.59;;;15.65;74.66
78444;BME280;67739;52.986;8.894;2023-10-08T11:43:16;102733.72;;;15.72;74.42
78444;BME280;67739;52.986;8.894;2023-10-08T11:45:43;102730.69;;;15.79;74.31
78444;BME280;67739;52.986;8.894;2023-10-08T11:48:14;102734.94;;;15.86;74.15
78444;BME280;67739;52.986;8.894;2023-10-08T11:50:42;102735.50;;;15.95;73.93
78444;BME280;67739;52.986;8.894;2023-10-08T11:53:09;102731.59;;;16.02;73.78
78444;BME280;67739;52.986;8.894;2023-10-08T11:55:37;102726.84;;;16.08;73.95
78444;BME280;67739;52.986;8.894;2023-10-08T11:58:05;102729.22;;;16.16;73.71
78444;BME280;67739;52.986;8.894;2023-10-08T12:00:40;102724.38;;;16.24;73.64
78444;BME280;67739;52.986;8.894;2023-10-08T12:03:10;102726.84;;;16.30;73.74
78444;BME280;67739;52.986;8.894;2023-10-08T12:05:36;102720.22;;;16.37;73.57
78444;BME280;67739;52.986;8.894;2023-10-08T12:08:03;102705.56;;;16.43;73.58
78444;BME280;67739;52.986;8.894;2023-10-08T12:10:29;102700.69;;;16.51;73.41
78444;BME280;67739;52.986;8.894;2023-10-08T12:12:56;102686.88;;;16.57;73.33
78444;BME280;67739;52.986;8.894;2023-10-08T12:15:25;102670.38;;;16.63;73.37
78444;BME280;67739;52.986;8.894;2023-10-08T12:17:59;102658.31;;;16.70;73.19
78444;BME280;67739;52.986;8.894;2023-10-08T12:20:38;102667.06;;;16.77;73.24
78444;BME280;67739;52.986;8.894;2023-10-08T12:23:04;102654.13;;;16.83;73.36
78444;BME280;67739;52.986;8.894;2023-10-08T12:25:30;102659.25;;;16.89;73.02
78444;BME280;67739;52.986;8.894;2023-10-08T12:28:00;102659.88;;;16.96;73.13
78444;BME280;67739;52.986;8.894;2023-10-08T12:30:33;102665.09;;;17.01;73.05
78444;BME280;67739;52.986;8.894;2023-10-08T12:33:07;102672.88;;;17.08;73.11
78444;BME280;67739;52.986;8.894;2023-10-08T12:35:32;102679.84;;;17.14;73.15
78444;BME280;67739;52.986;8.894;2023-10-08T12:37:58;102682.25;;;17.20;73.08
78444;BME280;67739;52.986;8.894;2023-10-08T12:40:23;102694.69;;;17.25;73.33
78444;BME280;67739;52.986;8.894;2023-10-08T12:42:52;102695.34;;;17.30;73.10
78444;BME280;67739;52.986;8.894;2023-10-08T12:45:17;102694.09;;;17.38;73.05
78444;BME280;67739;52.986;8.894;2023-10-08T12:47:52;102692.00;;;17.44;73.03
78444;BME280;67739;52.986;8.894;2023-10-08T12:50:19;102687.16;;;17.51;73.05
78444;BME280;67739;52.986;8.894;2023-10-08T12:53:11;102685.13;;;17.56;72.96
78444;BME280;67739;52.986;8.894;2023-10-08T12:55:39;102690.22;;;17.62;73.07
78444;BME280;67739;52.986;8.894;2023-10-08T12:58:07;102699.97;;;17.67;72.70
78444;BME280;67739;52.986;8.894;2023-10-08T13:00:38;102716.91;;;17.73;73.15
78444;BME280;67739;52.986;8.894;2023-10-08T13:03:06;102724.69;;;17.80;72.90
78444;BME280;67739;52.986;8.894;2023-10-08T13:05:40;102714.44;;;17.87;72.98
78444;BME280;67739;52.986;8.894;2023-10-08T13:08:09;102695.16;;;17.91;72.99
78444;BME280;67739;52.986;8.894;2023-10-08T13:10:35;102690.41;;;17.96;73.27
78444;BME280;67739;52.986;8.894;2023-10-08T13:13:03;102699.22;;;18.01;73.15
78444;BME280;67739;52.986;8.894;2023-10-08T13:15:28;102694.41;;;18.07;72.95
78444;BME280;67739;52.986;8.894;2023-10-08T13:17:55;102696.91;;;18.11;73.06